Time;durP1;ratioP1;P1;durP2;ratioP2;P2;SDS_P1;SDS_P2;PMS_P1;PMS_P2;Temp;Humidity;BMP_temperature;BMP_pressure;BME280_temperature;BME280_humidity;BME280_pressure;Samples;Min_cycle;Max_cycle;Signal;HPM_P1;HPM_P2
2023/09/09 04:01:53;;;;;;;6.60;4.73;;;17.00;97.30;;;;;;5369137;23;20592;-85
2023/09/09 04:04:19;;;;;;;8.33;5.07;;;17.00;97.30;;;;;;4980446;28;20521;-85
2023/09/09 04:06:44;;;;;;;13.00;5.93;;;17.00;97.30;;;;;;4979108;28;20755;-84
2023/09/09 04:09:10;;;;;;;17.30;9.43;;;16.90;97.30;;;;;;4976155;28;20174;-85
2023/09/09 04:11:35;;;;;;;21.43;9.63;;;16.80;97.30;;;;;;4984597;28;20225;-85
2023/09/09 04:14:01;;;;;;;14.30;7.00;;;16.80;97.30;;;;;;4996262;28;20654;-85
2023/09/09 04:16:27;;;;;;;25.07;10.90;;;16.80;97.30;;;;;;5006708;28;20184;-84
2023/09/09 04:18:52;;;;;;;39.47;12.60;;;16.70;97.30;;;;;;4992332;28;20258;-84
2023/09/09 04:21:18;;;;;;;46.63;21.53;;;16.70;97.30;;;;;;4999018;28;20192;-82
2023/09/09 04:23:43;;;;;;;60.93;26.33;;;16.70;97.30;;;;;;5006057;28;20197;-85
2023/09/09 04:26:09;;;;;;;26.57;13.40;;;16.60;97.30;;;;;;5006046;28;20221;-85
2023/09/09 04:28:34;;;;;;;27.53;13.70;;;16.60;97.30;;;;;;5002642;28;20268;-83
2023/09/09 04:31:00;;;;;;;12.00;7.57;;;16.60;97.30;;;;;;5005083;28;20297;-84
2023/09/09 04:33:25;;;;;;;18.17;8.60;;;16.60;97.30;;;;;;5000114;28;20189;-85
2023/09/09 04:35:51;;;;;;;11.27;7.77;;;16.60;97.30;;;;;;5007216;28;20269;-83
2023/09/09 04:38:17;;;;;;;26.10;13.90;;;16.60;97.30;;;;;;4999175;28;20173;-84
2023/09/09 04:40:42;;;;;;;44.83;19.80;;;16.60;97.30;;;;;;5011174;28;20189;-84
2023/09/09 04:43:08;;;;;;;57.07;24.83;;;16.60;97.30;;;;;;5003056;28;20244;-84
2023/09/09 04:45:33;;;;;;;43.03;15.73;;;16.60;97.30;;;;;;4993631;28;20680;-84
2023/09/09 04:47:59;;;;;;;47.50;16.20;;;16.60;97.30;;;;;;5009929;28;20655;-84
2023/09/09 04:50:24;;;;;;;39.40;14.07;;;16.50;97.30;;;;;;5001657;28;20182;-84
2023/09/09 04:52:50;;;;;;;26.87;10.40;;;16.50;97.30;;;;;;5000854;28;20186;-85
2023/09/09 04:55:15;;;;;;;17.93;7.03;;;16.40;97.30;;;;;;5005669;28;20188;-84
2023/09/09 04:57:42;;;;;;;26.27;9.90;;;16.40;97.30;;;;;;4997924;28;20188;-84
2023/09/09 05:00:08;;;;;;;16.13;7.53;;;16.40;97.30;;;;;;4988552;28;20271;-85
2023/09/09 05:02:38;;;;;;;17.33;6.87;;;16.40;97.30;;;;;;4996584;28;20483;-83
2023/09/09 05:05:05;;;;;;;9.93;5.70;;;16.40;97.30;;;;;;4994907;28;20960;-84
2023/09/09 05:07:34;;;;;;;9.00;4.63;;;16.40;97.30;;;;;;4994319;28;20496;-83
2023/09/09 05:10:01;;;;;;;6.47;6.07;;;16.50;97.30;;;;;;5006508;28;20943;-84
2023/09/09 05:12:27;;;;;;;8.70;5.03;;;16.50;97.30;;;;;;4991740;28;20507;-83
2023/09/09 05:14:52;;;;;;;5.90;4.20;;;16.50;97.30;;;;;;4992368;28;20449;-84
2023/09/09 05:17:18;;;;;;;7.43;6.53;;;16.50;97.30;;;;;;4998733;28;20646;-85
2023/09/09 05:19:43;;;;;;;7.83;6.07;;;16.60;97.30;;;;;;5010245;28;20733;-85
2023/09/09 05:22:09;;;;;;;6.10;5.80;;;16.60;97.30;;;;;;5001049;28;20749;-84
2023/09/09 05:24:34;;;;;;;10.73;6.33;;;16.60;97.30;;;;;;5000444;28;20705;-85
2023/09/09 05:27:00;;;;;;;10.13;7.70;;;16.70;97.30;;;;;;5002502;28;20227;-84
2023/09/09 05:29:25;;;;;;;10.47;7.33;;;16.70;97.30;;;;;;5007414;28;20181;-84
2023/09/09 05:31:51;;;;;;;8.97;5.27;;;16.70;97.30;;;;;;5007977;28;20196;-85
2023/09/09 05:34:16;;;;;;;4.10;3.90;;;16.80;97.30;;;;;;4992447;28;20466;-84
2023/09/09 05:36:42;;;;;;;5.87;4.30;;;16.80;97.30;;;;;;5008940;28;20195;-84
2023/09/09 05:39:07;;;;;;;8.03;5.57;;;16.80;97.30;;;;;;5003610;28;20173;-85
2023/09/09 05:41:33;;;;;;;7.90;4.30;;;16.90;97.30;;;;;;5000339;28;20288;-85
2023/09/09 05:43:58;;;;;;;3.83;3.63;;;17.00;97.30;;;;;;5000875;28;20212;-84
2023/09/09 05:46:24;;;;;;;1.47;1.40;;;17.00;97.30;;;;;;5001840;28;20243;-84
2023/09/09 05:48:50;;;;;;;5.43;3.30;;;17.10;97.30;;;;;;5003811;28;20272;-84
2023/09/09 05:51:17;;;;;;;9.27;3.87;;;17.10;97.30;;;;;;4996083;28;21017;-83
2023/09/09 05:53:42;;;;;;;3.60;3.40;;;17.20;97.30;;;;;;5007991;28;20459;-85
2023/09/09 05:56:08;;;;;;;2.57;2.00;;;17.30;97.30;;;;;;4991748;28;20456;-84
2023/09/09 05:58:36;;;;;;;2.23;2.03;;;17.30;97.30;;;;;;5009211;28;20189;-83
2023/09/09 06:01:02;;;;;;;5.50;3.23;;;17.40;97.30;;;;;;5011256;28;20272;-84
2023/09/09 06:03:29;;;;;;;9.90;3.23;;;17.50;97.30;;;;;;5012327;28;20467;-83
2023/09/09 06:05:54;;;;;;;3.37;3.17;;;17.60;97.30;;;;;;5003125;28;20452;-84
2023/09/09 06:08:20;;;;;;;2.67;2.00;;;17.70;97.30;;;;;;4995178;28;20803;-83
2023/09/09 06:10:46;;;;;;;5.57;2.33;;;17.70;97.30;;;;;;4997608;28;20214;-85
2023/09/09 06:13:11;;;;;;;5.20;2.73;;;17.80;97.30;;;;;;5000888;28;20627;-84
2023/09/09 06:15:37;;;;;;;7.27;3.03;;;17.90;97.30;;;;;;5008951;28;20431;-84
2023/09/09 06:18:03;;;;;;;5.80;3.20;;;18.00;97.30;;;;;;5000632;28;20178;-84
2023/09/09 06:20:28;;;;;;;5.50;2.20;;;18.10;97.30;;;;;;4991199;28;20182;-85
2023/09/09 06:22:54;;;;;;;4.30;2.90;;;18.10;97.30;;;;;;4992221;28;20205;-84
2023/09/09 06:25:20;;;;;;;1.67;1.60;;;18.20;97.30;;;;;;5002428;28;20196;-84
2023/09/09 06:27:45;;;;;;;3.37;2.80;;;18.30;97.30;;;;;;4998403;28;20308;-84
2023/09/09 06:30:11;;;;;;;6.83;2.83;;;18.40;97.30;;;;;;4995084;28;20512;-84
2023/09/09 06:32:37;;;;;;;5.87;2.90;;;18.50;97.30;;;;;;4990624;28;20232;-84
2023/09/09 06:35:03;;;;;;;3.03;1.90;;;18.60;97.30;;;;;;4996125;28;20190;-84
2023/09/09 06:37:28;;;;;;;2.60;2.00;;;18.70;97.30;;;;;;4997640;28;20186;-83
2023/09/09 06:39:54;;;;;;;1.90;1.40;;;18.80;97.30;;;;;;5006442;28;20428;-84
2023/09/09 06:42:21;;;;;;;2.03;1.93;;;18.90;97.30;;;;;;4997427;28;20212;-84
2023/09/09 06:44:46;;;;;;;1.87;1.77;;;19.00;97.30;;;;;;5007704;28;20615;-83
2023/09/09 06:47:12;;;;;;;3.57;2.00;;;19.10;97.30;;;;;;4997565;28;20501;-85
2023/09/09 06:49:38;;;;;;;4.20;2.20;;;19.10;97.30;;;;;;4999348;28;20208;-85
2023/09/09 06:52:04;;;;;;;6.83;2.50;;;19.20;97.30;;;;;;4997995;28;20292;-85
2023/09/09 06:54:29;;;;;;;2.23;1.83;;;19.30;97.30;;;;;;5000169;28;20198;-84
2023/09/09 06:56:55;;;;;;;3.07;2.90;;;19.40;97.30;;;;;;5002295;28;20953;-84
2023/09/09 06:59:20;;;;;;;4.23;2.23;;;19.50;97.30;;;;;;5004502;28;20182;-85
2023/09/09 07:01:46;;;;;;;1.73;1.67;;;19.60;97.30;;;;;;5002577;28;20714;-84
2023/09/09 07:04:11;;;;;;;2.90;2.33;;;19.60;97.30;;;;;;5012828;28;20221;-85
2023/09/09 07:06:37;;;;;;;8.40;3.50;;;19.80;97.30;;;;;;4994678;28;20690;-84
2023/09/09 07:09:02;;;;;;;4.13;2.07;;;19.80;97.30;;;;;;4996810;28;20776;-85
2023/09/09 07:11:28;;;;;;;2.83;1.73;;;19.90;97.30;;;;;;5011557;28;20201;-85
2023/09/09 07:13:54;;;;;;;2.47;2.23;;;20.00;97.30;;;;;;5011519;28;20263;-85
2023/09/09 07:16:20;;;;;;;2.70;1.90;;;20.10;97.30;;;;;;5011569;28;20911;-84
2023/09/09 07:18:45;;;;;;;2.03;1.93;;;20.20;97.30;;;;;;5009325;28;20181;-84
2023/09/09 07:21:11;;;;;;;2.43;1.70;;;20.30;97.30;;;;;;4999933;28;20198;-85
2023/09/09 07:23:36;;;;;;;2.90;2.40;;;20.30;97.30;;;;;;4993094;28;20206;-84
2023/09/09 07:26:02;;;;;;;1.63;1.53;;;20.40;97.30;;;;;;5007486;28;20636;-85
2023/09/09 07:28:28;;;;;;;5.50;2.00;;;20.50;97.30;;;;;;5008975;28;20177;-85
2023/09/09 07:30:53;;;;;;;2.70;1.40;;;20.50;97.30;;;;;;5012674;28;20193;-85
2023/09/09 07:33:19;;;;;;;2.60;2.40;;;20.60;97.30;;;;;;5006378;28;20201;-85
2023/09/09 07:35:45;;;;;;;2.67;2.50;;;20.70;97.30;;;;;;4999828;28;20237;-85
2023/09/09 07:38:11;;;;;;;1.77;1.63;;;20.80;97.30;;;;;;5004927;28;20667;-86
2023/09/09 07:40:36;;;;;;;1.43;1.33;;;20.80;97.30;;;;;;5011555;28;20523;-85
2023/09/09 07:43:02;;;;;;;4.77;2.80;;;20.80;97.00;;;;;;5011087;28;20572;-85
2023/09/09 07:45:28;;;;;;;9.03;2.27;;;20.90;97.20;;;;;;4995812;28;20185;-85
2023/09/09 07:47:54;;;;;;;2.83;2.30;;;21.00;97.30;;;;;;5011675;28;20877;-83
2023/09/09 07:50:19;;;;;;;3.70;1.67;;;21.00;97.00;;;;;;5004716;28;20467;-81
2023/09/09 07:52:45;;;;;;;3.13;2.23;;;21.10;96.80;;;;;;5007645;28;20611;-85
2023/09/09 07:55:10;;;;;;;4.10;2.40;;;21.20;97.10;;;;;;5006156;28;20177;-85
2023/09/09 07:57:36;;;;;;;1.93;1.87;;;21.20;96.80;;;;;;5011018;28;20243;-84
2023/09/09 08:00:02;;;;;;;2.03;1.93;;;21.30;96.50;;;;;;5007153;28;20666;-85
2023/09/09 08:02:28;;;;;;;2.13;1.97;;;21.40;95.90;;;;;;5005853;28;20236;-85
2023/09/09 08:04:54;;;;;;;2.83;2.23;;;21.50;95.80;;;;;;4999176;28;20488;-84
2023/09/09 08:07:19;;;;;;;2.43;2.23;;;21.60;95.40;;;;;;4989886;28;20517;-84
2023/09/09 08:09:45;;;;;;;5.77;1.70;;;21.70;95.70;;;;;;4992329;28;20580;-85
2023/09/09 08:12:10;;;;;;;5.63;2.07;;;21.70;95.00;;;;;;5004644;28;20256;-85
2023/09/09 08:14:36;;;;;;;2.70;1.70;;;21.80;94.80;;;;;;5001156;28;20340;-84
2023/09/09 08:17:02;;;;;;;2.23;2.00;;;21.90;94.70;;;;;;4998808;28;20185;-85
2023/09/09 08:19:27;;;;;;;3.83;1.73;;;22.00;94.50;;;;;;4998899;28;20671;-85
2023/09/09 08:21:53;;;;;;;5.17;2.03;;;22.10;94.30;;;;;;5007832;28;20719;-84
2023/09/09 08:24:18;;;;;;;1.60;1.50;;;22.20;94.40;;;;;;5004487;28;20631;-84
2023/09/09 08:26:44;;;;;;;1.47;1.43;;;22.30;94.50;;;;;;5004132;28;20181;-84
2023/09/09 08:29:09;;;;;;;3.00;1.83;;;22.40;94.00;;;;;;4999511;28;20646;-84
2023/09/09 08:31:36;;;;;;;2.00;1.63;;;22.50;93.70;;;;;;5002426;28;20271;-85
2023/09/09 08:34:01;;;;;;;3.97;2.03;;;22.60;93.40;;;;;;5011403;28;20926;-85
2023/09/09 08:36:27;;;;;;;2.60;1.80;;;22.60;93.00;;;;;;5009892;28;20453;-85
2023/09/09 08:38:56;;;;;;;3.60;1.90;;;22.70;92.50;;;;;;4999550;28;20197;-85
2023/09/09 08:41:25;;;;;;;3.83;2.30;;;22.80;91.80;;;;;;4998214;28;20630;-85
2023/09/09 08:44:06;;;;;;;5.57;3.17;;;22.90;92.20;;;;;;5000822;28;20491;-85
2023/09/09 08:46:32;;;;;;;2.53;1.90;;;23.00;92.00;;;;;;5009884;28;20438;-85
2023/09/09 08:48:58;;;;;;;4.63;1.70;;;23.10;92.00;;;;;;5001553;28;20432;-84
2023/09/09 08:51:40;;;;;;;1.87;1.77;;;23.20;91.60;;;;;;5001464;28;20208;-85
2023/09/09 08:54:08;;;;;;;3.73;2.83;;;23.30;91.80;;;;;;4993799;28;20424;-85
2023/09/09 08:56:33;;;;;;;1.70;1.67;;;23.40;90.90;;;;;;5009615;28;20477;-85
2023/09/09 08:58:59;;;;;;;2.00;1.33;;;23.50;89.10;;;;;;5009977;28;20423;-85
2023/09/09 09:01:27;;;;;;;4.10;2.40;;;23.60;89.80;;;;;;5000012;28;20452;-84
2023/09/09 09:03:54;;;;;;;4.00;2.33;;;23.70;90.00;;;;;;4999588;28;20220;-85
2023/09/09 09:06:20;;;;;;;3.43;2.30;;;23.80;90.10;;;;;;4999987;28;20424;-85
2023/09/09 09:08:45;;;;;;;3.93;1.43;;;23.80;90.10;;;;;;5006839;28;20428;-85
2023/09/09 09:11:12;;;;;;;2.20;1.60;;;23.90;90.20;;;;;;4996495;28;20248;-85
2023/09/09 09:13:37;;;;;;;4.80;2.17;;;24.00;90.20;;;;;;4997100;28;20189;-85
2023/09/09 09:16:03;;;;;;;1.77;1.70;;;24.10;90.20;;;;;;4996860;28;20661;-85
2023/09/09 09:18:29;;;;;;;2.97;2.10;;;24.20;90.20;;;;;;4995183;28;20193;-85
2023/09/09 09:21:09;;;;;;;2.43;1.73;;;24.20;89.50;;;;;;5009853;28;20213;-84
2023/09/09 09:23:50;;;;;;;2.50;1.67;;;24.30;89.40;;;;;;5000909;28;20205;-84
2023/09/09 09:26:26;;;;;;;4.57;2.87;;;24.40;89.30;;;;;;4990020;28;20774;-85
2023/09/09 09:28:52;;;;;;;3.20;2.27;;;24.50;88.90;;;;;;4998046;28;20412;-85
2023/09/09 09:31:25;;;;;;;1.63;1.53;;;24.60;88.20;;;;;;4989989;28;20448;-85
2023/09/09 09:33:52;;;;;;;1.97;1.90;;;24.70;87.50;;;;;;4989835;28;20656;-86
2023/09/09 09:36:20;;;;;;;3.23;2.27;;;24.80;87.40;;;;;;5002983;28;20420;-85
2023/09/09 09:38:46;;;;;;;1.70;1.60;;;24.80;86.90;;;;;;5009924;28;20419;-84
2023/09/09 09:41:11;;;;;;;1.87;1.67;;;25.00;87.40;;;;;;5001688;28;20564;-85
2023/09/09 09:43:37;;;;;;;5.40;2.87;;;25.10;86.90;;;;;;4993694;28;20550;-85
2023/09/09 09:46:17;;;;;;;2.60;2.30;;;25.20;86.70;;;;;;5010231;28;20563;-85
2023/09/09 09:48:43;;;;;;;1.67;1.50;;;25.30;86.00;;;;;;4992635;28;20185;-84
2023/09/09 09:51:08;;;;;;;3.23;2.50;;;25.30;86.20;;;;;;4990108;28;20452;-85
2023/09/09 09:53:47;;;;;;;3.10;1.80;;;25.50;86.00;;;;;;4989527;28;21061;-85
2023/09/09 09:56:12;;;;;;;1.57;1.37;;;25.60;86.60;;;;;;5000816;28;20614;-85
2023/09/09 09:58:38;;;;;;;2.17;1.63;;;25.70;85.30;;;;;;5003146;28;20463;-85
2023/09/09 10:01:06;;;;;;;2.97;2.17;;;25.80;83.70;;;;;;4990809;28;20245;-84
2023/09/09 10:03:45;;;;;;;1.47;1.37;;;25.90;83.80;;;;;;5006232;28;20240;-85
2023/09/09 10:06:13;;;;;;;3.63;2.30;;;26.00;83.50;;;;;;5003299;28;20412;-85
2023/09/09 10:08:45;;;;;;;6.50;1.50;;;26.10;83.50;;;;;;4993684;28;20421;-85
2023/09/09 10:11:15;;;;;;;1.27;1.20;;;26.30;83.90;;;;;;4994142;28;20510;-84
2023/09/09 10:13:51;;;;;;;6.03;2.60;;;26.30;83.50;;;;;;5033653;23;20502;-85
2023/09/09 10:16:18;;;;;;;2.33;1.67;;;26.40;83.50;;;;;;4982064;28;20436;-85
2023/09/09 10:18:44;;;;;;;1.57;1.47;;;26.50;83.10;;;;;;4981344;28;20434;-85
2023/09/09 10:21:12;;;;;;;2.40;1.37;;;26.50;82.10;;;;;;4980085;28;21038;-84
2023/09/09 10:23:39;;;;;;;3.20;1.80;;;26.50;82.10;;;;;;4991222;28;20834;-85
2023/09/09 10:26:06;;;;;;;3.80;2.43;;;26.60;81.80;;;;;;5004094;28;20841;-85
2023/09/09 10:28:32;;;;;;;4.83;2.40;;;26.70;82.60;;;;;;4999618;28;20452;-85
2023/09/09 10:31:00;;;;;;;3.17;2.07;;;26.80;81.40;;;;;;5001181;28;20486;-85
2023/09/09 10:33:28;;;;;;;2.07;2.00;;;26.90;80.90;;;;;;4998955;28;20988;-85
2023/09/09 10:35:54;;;;;;;2.50;2.17;;;26.90;81.60;;;;;;5003270;28;20443;-84
2023/09/09 10:38:22;;;;;;;3.33;1.77;;;27.00;80.90;;;;;;5008215;28;20424;-86
2023/09/09 10:40:49;;;;;;;1.60;1.30;;;27.20;80.40;;;;;;5004676;28;20917;-86
2023/09/09 10:43:14;;;;;;;4.70;2.10;;;27.20;79.90;;;;;;5004183;28;20518;-85
2023/09/09 10:45:42;;;;;;;2.90;2.17;;;27.40;80.20;;;;;;5012495;28;20420;-86
2023/09/09 10:48:10;;;;;;;3.13;1.83;;;27.50;80.20;;;;;;5009537;28;20240;-85
2023/09/09 10:50:52;;;;;;;1.53;1.43;;;27.50;79.50;;;;;;5007599;28;20474;-85
2023/09/09 10:53:29;;;;;;;5.40;1.47;;;27.60;79.90;;;;;;5000110;28;20440;-85
2023/09/09 10:55:58;;;;;;;2.00;1.90;;;27.70;79.20;;;;;;5003349;28;20411;-85
2023/09/09 10:58:35;;;;;;;5.17;2.07;;;27.80;79.20;;;;;;5004489;28;20946;-85
2023/09/09 11:01:01;;;;;;;1.70;1.10;;;27.90;79.10;;;;;;5005564;28;20630;-85
2023/09/09 11:03:51;;;;;;;2.40;2.17;;;27.90;78.70;;;;;;5012236;28;20600;-85
2023/09/09 11:06:28;;;;;;;3.47;1.70;;;28.00;77.50;;;;;;4994857;28;20449;-84
2023/09/09 11:08:56;;;;;;;2.63;2.00;;;28.10;77.70;;;;;;5006363;28;20515;-85
2023/09/09 11:11:28;;;;;;;2.23;1.83;;;28.20;77.50;;;;;;5007191;28;20431;-83
2023/09/09 11:14:07;;;;;;;8.30;1.60;;;28.30;76.60;;;;;;5010795;28;21067;-85
2023/09/09 11:17:00;;;;;;;4.80;1.60;;;28.30;76.80;;;;;;5008700;28;20438;-80
2023/09/09 11:19:27;;;;;;;2.40;2.03;;;28.40;76.10;;;;;;5010588;28;20444;-84
2023/09/09 11:21:53;;;;;;;2.20;1.50;;;28.50;76.50;;;;;;5016614;28;20432;-83
2023/09/09 11:24:19;;;;;;;1.30;1.27;;;28.60;77.20;;;;;;5016725;28;20475;-85
2023/09/09 11:26:49;;;;;;;2.90;1.90;;;28.60;76.40;;;;;;5011797;28;20423;-85
2023/09/09 11:29:16;;;;;;;1.17;1.00;;;28.70;75.40;;;;;;5012457;28;20424;-85
2023/09/09 11:31:42;;;;;;;1.90;1.80;;;28.70;75.50;;;;;;5016270;28;20491;-84
2023/09/09 11:34:07;;;;;;;3.73;1.77;;;28.80;76.70;;;;;;5016196;28;20965;-85
2023/09/09 11:36:33;;;;;;;6.33;2.30;;;29.00;77.30;;;;;;5014868;28;20189;-84
2023/09/09 11:39:00;;;;;;;4.10;1.63;;;29.10;75.80;;;;;;5015573;28;20205;-85
2023/09/09 11:41:28;;;;;;;2.70;1.93;;;29.10;76.80;;;;;;5011645;28;20192;-85
2023/09/09 11:43:58;;;;;;;2.57;1.70;;;29.20;75.60;;;;;;5004745;28;20522;-85
2023/09/09 11:46:25;;;;;;;1.87;1.83;;;29.30;74.80;;;;;;5014096;28;20431;-84
2023/09/09 11:48:51;;;;;;;1.83;1.83;;;29.30;74.80;;;;;;5010090;28;20428;-84
2023/09/09 11:51:17;;;;;;;1.90;1.83;;;29.40;74.20;;;;;;5005520;28;20435;-85
2023/09/09 11:53:45;;;;;;;3.13;1.70;;;29.50;73.70;;;;;;5005887;28;20974;-85
2023/09/09 11:56:13;;;;;;;2.80;1.87;;;29.50;73.60;;;;;;5003903;28;20200;-85
2023/09/09 11:58:40;;;;;;;1.73;1.40;;;29.60;72.80;;;;;;5008343;28;20428;-85
2023/09/09 12:01:05;;;;;;;3.13;2.07;;;29.70;73.00;;;;;;5011244;28;20514;-85
2023/09/09 12:03:31;;;;;;;1.97;1.63;;;29.80;73.80;;;;;;5004744;28;20547;-84
2023/09/09 12:05:58;;;;;;;2.50;1.63;;;29.90;74.20;;;;;;5004279;28;20256;-85
2023/09/09 12:08:25;;;;;;;2.60;1.93;;;30.00;73.80;;;;;;5005686;28;20647;-85
2023/09/09 12:10:51;;;;;;;3.50;1.60;;;30.00;73.50;;;;;;5005998;28;20456;-85
2023/09/09 12:13:16;;;;;;;2.47;1.00;;;30.00;73.10;;;;;;5013443;28;20495;-85
2023/09/09 12:15:43;;;;;;;5.03;1.90;;;30.00;73.60;;;;;;5011573;28;20193;-85
2023/09/09 12:18:11;;;;;;;1.10;1.00;;;30.10;73.30;;;;;;4996286;28;20264;-85
2023/09/09 12:21:00;;;;;;;1.30;1.20;;;30.30;71.10;;;;;;5013070;28;20427;-84
2023/09/09 12:23:37;;;;;;;4.13;2.00;;;30.40;71.80;;;;;;5005495;28;21099;-83
2023/09/09 12:26:21;;;;;;;2.00;1.20;;;30.60;70.50;;;;;;5004043;28;20421;-83
2023/09/09 12:29:12;;;;;;;1.67;1.00;;;30.60;69.80;;;;;;5001082;28;20417;-85
2023/09/09 12:31:51;;;;;;;2.37;1.83;;;30.80;71.00;;;;;;5005792;28;20412;-86
2023/09/09 12:34:20;;;;;;;3.43;1.60;;;30.90;70.70;;;;;;5005778;28;20447;-85
2023/09/09 12:36:48;;;;;;;1.53;1.30;;;30.90;69.60;;;;;;5005915;28;20957;-84
2023/09/09 12:39:28;;;;;;;1.33;1.23;;;30.90;70.50;;;;;;4999687;28;20507;-85
2023/09/09 12:42:04;;;;;;;6.10;1.40;;;31.00;70.60;;;;;;4999930;28;20507;-86
2023/09/09 12:44:31;;;;;;;1.50;1.40;;;31.00;70.80;;;;;;4999370;28;20507;-85
2023/09/09 12:46:57;;;;;;;1.90;1.80;;;31.10;71.70;;;;;;5009097;28;20420;-85
2023/09/09 12:49:22;;;;;;;2.00;1.57;;;31.10;71.40;;;;;;5003538;28;20556;-86
2023/09/09 12:51:49;;;;;;;2.13;1.70;;;31.20;71.30;;;;;;4998331;28;20205;-86
2023/09/09 12:54:14;;;;;;;2.83;1.40;;;31.30;71.50;;;;;;4995226;28;20296;-84
2023/09/09 12:56:40;;;;;;;1.93;1.60;;;31.40;70.60;;;;;;5005185;28;21067;-85
2023/09/09 12:59:06;;;;;;;2.07;1.93;;;31.50;70.60;;;;;;5005209;28;20228;-85
2023/09/09 13:01:31;;;;;;;1.83;1.30;;;31.50;69.90;;;;;;5002576;28;20185;-85
2023/09/09 13:03:57;;;;;;;2.77;2.43;;;31.60;68.30;;;;;;5002547;28;20213;-85
2023/09/09 13:06:22;;;;;;;1.10;1.00;;;31.60;70.10;;;;;;5010340;28;20207;-85
2023/09/09 13:08:48;;;;;;;4.20;2.07;;;31.70;69.80;;;;;;5009547;28;20187;-84
2023/09/09 13:11:14;;;;;;;2.90;1.90;;;31.80;70.10;;;;;;5001977;28;20654;-86
2023/09/09 13:13:39;;;;;;;2.30;1.67;;;31.90;70.50;;;;;;4996709;28;20225;-84
2023/09/09 13:16:08;;;;;;;1.70;1.60;;;32.00;70.70;;;;;;5005817;28;20518;-85
2023/09/09 13:18:33;;;;;;;2.13;1.37;;;32.10;70.50;;;;;;4997413;28;20224;-85
2023/09/09 13:20:59;;;;;;;3.07;1.47;;;32.10;69.10;;;;;;5005635;28;20425;-85
2023/09/09 13:23:24;;;;;;;1.30;1.20;;;32.10;69.60;;;;;;5004793;28;20329;-85
2023/09/09 13:25:50;;;;;;;5.57;1.70;;;32.20;68.70;;;;;;5008584;28;20187;-85
2023/09/09 13:28:16;;;;;;;1.73;1.63;;;32.30;68.60;;;;;;5009022;28;20556;-85
2023/09/09 13:30:41;;;;;;;1.50;1.40;;;32.40;67.50;;;;;;5008799;28;20183;-85
2023/09/09 13:33:07;;;;;;;1.13;1.13;;;32.60;67.70;;;;;;5009455;28;20307;-85
2023/09/09 13:35:32;;;;;;;1.43;1.33;;;32.60;67.70;;;;;;5009950;28;20733;-86
2023/09/09 13:37:58;;;;;;;2.63;1.70;;;32.70;68.50;;;;;;5003154;28;20185;-85
2023/09/09 13:40:23;;;;;;;2.80;1.70;;;32.80;68.40;;;;;;5001239;28;20200;-85
2023/09/09 13:42:49;;;;;;;2.00;1.50;;;32.80;68.00;;;;;;5004584;28;20181;-85
2023/09/09 13:45:15;;;;;;;3.50;2.20;;;32.80;67.60;;;;;;5007447;28;20187;-85
2023/09/09 13:47:41;;;;;;;4.67;2.30;;;32.80;66.50;;;;;;5002679;28;20248;-86
2023/09/09 13:50:07;;;;;;;2.57;1.70;;;32.80;66.80;;;;;;5001808;28;20503;-85
2023/09/09 13:52:33;;;;;;;1.23;1.20;;;32.80;66.40;;;;;;5003199;28;20247;-86
2023/09/09 13:55:00;;;;;;;1.37;1.30;;;32.80;66.00;;;;;;5005749;28;20899;-86
2023/09/09 13:57:26;;;;;;;1.70;1.50;;;32.90;65.30;;;;;;4996679;28;20424;-84
2023/09/09 13:59:51;;;;;;;1.50;1.43;;;33.00;65.60;;;;;;5001307;28;20429;-86
2023/09/09 14:02:17;;;;;;;6.17;1.87;;;33.00;66.10;;;;;;5009839;28;20169;-86
2023/09/09 14:04:42;;;;;;;4.40;1.50;;;33.10;65.90;;;;;;5009061;28;20746;-82
2023/09/09 14:07:08;;;;;;;3.87;1.40;;;33.10;65.80;;;;;;5013982;28;20181;-86
2023/09/09 14:09:33;;;;;;;1.30;1.30;;;33.10;65.80;;;;;;5000487;28;20556;-86
2023/09/09 14:11:59;;;;;;;1.80;1.57;;;33.20;66.40;;;;;;5000918;28;20262;-86
2023/09/09 14:14:24;;;;;;;9.30;2.40;;;33.20;63.60;;;;;;4995923;28;20260;-85
2023/09/09 14:16:50;;;;;;;1.77;1.50;;;33.20;62.50;;;;;;5004619;28;20607;-86
2023/09/09 14:19:17;;;;;;;1.33;0.97;;;33.20;63.40;;;;;;5004543;28;20555;-86
2023/09/09 14:21:42;;;;;;;3.20;2.53;;;33.20;64.20;;;;;;5000427;28;20425;-85
2023/09/09 14:24:08;;;;;;;2.43;1.67;;;33.30;64.70;;;;;;5010654;28;20480;-86
2023/09/09 14:26:33;;;;;;;2.80;1.30;;;33.30;65.10;;;;;;5004281;28;20181;-84
2023/09/09 14:28:59;;;;;;;2.37;1.37;;;33.30;65.70;;;;;;5009178;28;20231;-84
2023/09/09 14:31:25;;;;;;;2.70;1.50;;;33.40;65.90;;;;;;5006279;28;20228;-83
2023/09/09 14:33:51;;;;;;;2.30;1.83;;;33.40;65.40;;;;;;5014305;28;20299;-83
2023/09/09 14:36:17;;;;;;;1.63;1.37;;;33.40;65.40;;;;;;5004494;28;20453;-83
2023/09/09 14:38:43;;;;;;;2.30;1.60;;;33.40;61.20;;;;;;5004846;28;20471;-81
2023/09/09 14:41:09;;;;;;;3.27;1.73;;;33.40;63.20;;;;;;5005258;28;20820;-83
2023/09/09 14:43:34;;;;;;;4.40;1.87;;;33.40;64.20;;;;;;4999786;28;20243;-82
2023/09/09 14:46:00;;;;;;;1.47;1.07;;;33.60;63.80;;;;;;5013901;28;20554;-83
2023/09/09 14:48:25;;;;;;;1.20;1.20;;;33.70;64.60;;;;;;5005812;28;20188;-83
2023/09/09 14:50:53;;;;;;;2.63;1.20;;;33.80;65.20;;;;;;4999847;28;20224;-83
2023/09/09 14:53:18;;;;;;;1.83;1.43;;;33.80;65.60;;;;;;4996570;28;20673;-83
2023/09/09 14:55:45;;;;;;;2.90;1.80;;;33.80;65.90;;;;;;5003157;28;20475;-84
2023/09/09 14:58:10;;;;;;;1.20;1.20;;;33.90;64.90;;;;;;5011288;28;20242;-83
2023/09/09 15:00:36;;;;;;;1.83;1.73;;;33.90;64.70;;;;;;5003150;28;20507;-83
2023/09/09 15:03:02;;;;;;;1.40;1.10;;;33.90;65.70;;;;;;5005089;28;20566;-83
2023/09/09 15:05:27;;;;;;;2.93;1.37;;;33.90;66.00;;;;;;5009641;28;20173;-83
2023/09/09 15:07:53;;;;;;;1.43;1.33;;;34.00;64.80;;;;;;5002836;28;20185;-84
2023/09/09 15:10:18;;;;;;;1.10;1.03;;;34.00;64.60;;;;;;5006450;28;20196;-83
2023/09/09 15:12:44;;;;;;;1.57;1.37;;;34.00;64.60;;;;;;5003689;28;20196;-84
2023/09/09 15:15:10;;;;;;;3.37;1.90;;;34.10;64.90;;;;;;5002145;28;20186;-84
2023/09/09 15:17:35;;;;;;;5.10;1.40;;;34.10;64.60;;;;;;5000196;28;20178;-84
2023/09/09 15:20:01;;;;;;;1.90;1.80;;;34.10;64.70;;;;;;5001137;28;20188;-84
2023/09/09 15:22:26;;;;;;;3.73;1.87;;;34.10;64.80;;;;;;4995584;28;20192;-84
2023/09/09 15:24:53;;;;;;;2.20;1.73;;;34.10;64.80;;;;;;5003736;28;20205;-83
2023/09/09 15:27:19;;;;;;;1.73;1.20;;;34.10;65.90;;;;;;5013171;28;20170;-83
2023/09/09 15:29:44;;;;;;;1.43;1.33;;;34.10;65.10;;;;;;5005293;28;20628;-83
2023/09/09 15:32:10;;;;;;;2.73;2.17;;;34.00;64.20;;;;;;5012053;28;20211;-83
2023/09/09 15:34:35;;;;;;;1.83;1.20;;;33.80;64.10;;;;;;5007954;28;20618;-83
2023/09/09 15:37:01;;;;;;;2.87;1.73;;;33.70;64.20;;;;;;5001690;28;20236;-83
2023/09/09 15:39:26;;;;;;;2.30;1.73;;;33.70;64.60;;;;;;5001380;28;20575;-84
2023/09/09 15:41:54;;;;;;;2.13;1.60;;;33.70;65.10;;;;;;4999476;28;20188;-83
2023/09/09 15:44:19;;;;;;;2.37;1.63;;;33.70;65.80;;;;;;4996844;28;20218;-83
2023/09/09 15:46:45;;;;;;;1.40;1.40;;;33.60;66.60;;;;;;5009955;28;20428;-83
2023/09/09 15:49:10;;;;;;;4.37;1.60;;;33.60;66.80;;;;;;5009812;28;20189;-82
2023/09/09 15:51:37;;;;;;;1.63;1.53;;;33.60;66.80;;;;;;4997448;28;20546;-83
2023/09/09 15:54:03;;;;;;;1.80;1.50;;;33.60;67.40;;;;;;5005883;28;20714;-83
2023/09/09 15:56:29;;;;;;;1.93;1.57;;;33.50;67.70;;;;;;5003402;28;20433;-83
2023/09/09 15:58:54;;;;;;;1.93;1.80;;;33.40;67.80;;;;;;4998943;28;20210;-82
2023/09/09 16:01:20;;;;;;;2.50;1.70;;;33.40;68.00;;;;;;5002731;28;20181;-83
2023/09/09 16:03:45;;;;;;;7.13;1.93;;;33.40;68.60;;;;;;5000101;28;20201;-83
2023/09/09 16:06:11;;;;;;;1.53;1.30;;;33.30;68.60;;;;;;5002544;28;20182;-82
2023/09/09 16:08:38;;;;;;;1.13;1.03;;;33.30;68.90;;;;;;4993503;28;20228;-83
2023/09/09 16:11:04;;;;;;;3.00;1.60;;;33.20;69.40;;;;;;5008669;28;20836;-83
2023/09/09 16:13:30;;;;;;;1.47;1.37;;;33.10;69.80;;;;;;5024726;23;20488;-72
2023/09/09 16:16:01;;;;;;;4.37;2.63;;;33.00;70.30;;;;;;4990120;28;20236;-72
2023/09/09 16:18:26;;;;;;;2.33;1.80;;;32.90;70.60;;;;;;4990276;28;20428;-72
2023/09/09 16:20:52;;;;;;;1.80;1.53;;;32.90;70.40;;;;;;4988779;28;20444;-72
2023/09/09 16:23:19;;;;;;;7.23;1.80;;;32.80;70.50;;;;;;5002689;28;20213;-72
2023/09/09 16:25:45;;;;;;;1.63;1.57;;;32.70;70.90;;;;;;5002835;28;20444;-72
2023/09/09 16:28:11;;;;;;;1.67;1.20;;;32.60;70.50;;;;;;5003017;28;20764;-72
2023/09/09 16:30:37;;;;;;;3.53;1.80;;;32.40;71.30;;;;;;5001211;28;21029;-72
2023/09/09 16:33:02;;;;;;;3.00;1.97;;;32.20;71.70;;;;;;5001536;28;20208;-72
2023/09/09 16:35:28;;;;;;;3.17;2.53;;;32.10;71.30;;;;;;4999155;28;20568;-72
2023/09/09 16:37:54;;;;;;;1.53;1.43;;;32.00;71.60;;;;;;5004026;28;20676;-72
2023/09/09 16:40:19;;;;;;;1.40;1.23;;;31.90;71.90;;;;;;5000021;28;20210;-72
2023/09/09 16:42:45;;;;;;;4.63;1.73;;;31.70;72.10;;;;;;4995179;28;20174;-72
2023/09/09 16:45:10;;;;;;;2.90;2.00;;;31.60;72.60;;;;;;5002662;28;20178;-72